Time;durP1;ratioP1;P1;durP2;ratioP2;P2;SDS_P1;SDS_P2;PMS_P1;PMS_P2;Temp;Humidity;BMP_temperature;BMP_pressure;BME280_temperature;BME280_humidity;BME280_pressure;Samples;Min_cycle;Max_cycle;Signal;HPM_P1;HPM_P2
2022/03/04 00:00:27;;;;;;;10.27;6.93;;;;;10.20;101832.00;;;;5049354;28;20235;-79
2022/03/04 00:02:56;;;;;;;9.68;6.40;;;;;10.20;101828.00;;;;5048416;28;20200;-79
2022/03/04 00:05:24;;;;;;;11.18;6.72;;;;;10.20;101833.00;;;;5047876;28;20211;-79
2022/03/04 00:07:53;;;;;;;12.32;7.28;;;;;10.10;101837.00;;;;5047271;28;20206;-79
2022/03/04 00:10:20;;;;;;;12.10;7.30;;;;;10.10;101836.00;;;;5047839;28;20318;-79
2022/03/04 00:12:47;;;;;;;12.40;7.53;;;;;10.10;101841.00;;;;5047564;28;20208;-79
2022/03/04 00:15:15;;;;;;;10.82;6.88;;;;;10.10;101842.00;;;;5028110;28;20551;-79
2022/03/04 00:17:42;;;;;;;10.52;7.25;;;;;10.10;101845.00;;;;5027962;28;20192;-79
2022/03/04 00:20:10;;;;;;;11.98;6.93;;;;;10.10;101846.00;;;;5027166;28;20279;-79
2022/03/04 00:22:37;;;;;;;10.52;6.82;;;;;10.10;101844.00;;;;5028126;28;20208;-79
2022/03/04 00:25:07;;;;;;;11.70;6.80;;;;;10.10;101843.00;;;;5027372;28;20215;-79
2022/03/04 00:27:34;;;;;;;10.15;5.97;;;;;10.10;101847.00;;;;5028424;28;20667;-79
2022/03/04 00:30:02;;;;;;;10.23;6.50;;;;;10.10;101848.00;;;;5030219;28;20231;-78
2022/03/04 00:32:29;;;;;;;11.20;6.88;;;;;10.10;101842.00;;;;5047868;28;20234;-79
2022/03/04 00:34:56;;;;;;;10.50;6.10;;;;;10.10;101838.00;;;;5048011;28;20576;-79
2022/03/04 00:37:23;;;;;;;10.82;6.55;;;;;10.10;101843.00;;;;5047827;28;20674;-79
2022/03/04 00:39:51;;;;;;;12.52;6.65;;;;;10.00;101851.00;;;;5047924;28;20557;-79
2022/03/04 00:42:19;;;;;;;12.05;6.97;;;;;10.00;101854.00;;;;5047072;28;20195;-79
2022/03/04 00:44:46;;;;;;;10.52;6.93;;;;;10.00;101853.00;;;;5048380;28;20226;-79
2022/03/04 00:47:14;;;;;;;11.30;7.40;;;;;10.00;101849.00;;;;5047603;28;20208;-78
2022/03/04 00:49:41;;;;;;;11.73;6.57;;;;;10.00;101856.00;;;;5048286;28;20231;-79
2022/03/04 00:52:08;;;;;;;11.00;7.18;;;;;9.90;101857.00;;;;5047556;28;20847;-79
2022/03/04 00:54:36;;;;;;;10.88;6.38;;;;;9.90;101865.00;;;;5049255;28;20191;-79
2022/03/04 00:57:03;;;;;;;10.75;6.97;;;;;9.90;101861.00;;;;5059189;28;20195;-79
2022/03/04 00:59:32;;;;;;;12.00;7.22;;;;;9.90;101869.00;;;;5048191;28;20250;-79
2022/03/04 01:01:59;;;;;;;10.80;7.25;;;;;9.90;101860.00;;;;5047455;28;20282;-79
2022/03/04 01:04:26;;;;;;;14.13;7.93;;;;;9.80;101856.00;;;;5048163;28;20207;-79
2022/03/04 01:06:53;;;;;;;13.85;7.65;;;;;9.80;101853.00;;;;5037696;28;20200;-79
2022/03/04 01:09:21;;;;;;;12.30;7.13;;;;;9.80;101849.00;;;;5028020;28;20224;-79
2022/03/04 01:11:48;;;;;;;12.95;7.03;;;;;9.80;101850.00;;;;5027281;28;20728;-79
2022/03/04 01:14:15;;;;;;;11.63;7.35;;;;;9.80;101847.00;;;;5028020;28;20208;-79
2022/03/04 01:16:44;;;;;;;12.50;8.02;;;;;9.70;101843.00;;;;5027745;28;20202;-79
2022/03/04 01:19:11;;;;;;;11.70;7.38;;;;;9.70;101838.00;;;;5027801;28;20236;-79
2022/03/04 01:21:39;;;;;;;11.95;7.00;;;;;9.70;101838.00;;;;5035346;28;20203;-79
2022/03/04 01:24:07;;;;;;;11.57;7.07;;;;;9.60;101840.00;;;;5047893;28;20199;-79
2022/03/04 01:26:35;;;;;;;11.52;7.35;;;;;9.60;101840.00;;;;5047834;28;20295;-79
2022/03/04 01:29:02;;;;;;;11.98;7.07;;;;;9.60;101841.00;;;;5048075;28;20207;-79
2022/03/04 01:31:29;;;;;;;11.73;7.30;;;;;9.60;101850.00;;;;5047760;28;20246;-79
2022/03/04 01:33:58;;;;;;;13.60;7.85;;;;;9.50;101850.00;;;;5047786;28;20208;-79
2022/03/04 01:36:25;;;;;;;13.52;7.00;;;;;9.50;101848.00;;;;5049747;28;20554;-78
2022/03/04 01:38:52;;;;;;;12.52;7.28;;;;;9.50;101842.00;;;;5051079;28;20215;-79
2022/03/04 01:41:19;;;;;;;10.80;6.90;;;;;9.50;101837.00;;;;5051569;28;20199;-79
2022/03/04 01:43:47;;;;;;;11.48;7.53;;;;;9.40;101836.00;;;;5051877;28;20199;-79
2022/03/04 01:46:16;;;;;;;11.90;7.40;;;;;9.40;101836.00;;;;5050397;28;20207;-79
2022/03/04 01:48:46;;;;;;;9.50;6.20;;;;;9.40;101828.00;;;;5051421;28;20203;-79
2022/03/04 01:51:14;;;;;;;12.15;7.05;;;;;9.30;101834.00;;;;5051200;28;20227;-79
2022/03/04 01:53:42;;;;;;;10.98;7.07;;;;;9.30;101838.00;;;;5051344;28;20210;-79
2022/03/04 01:56:10;;;;;;;10.75;7.38;;;;;9.30;101839.00;;;;5051298;28;20631;-79
2022/03/04 01:58:37;;;;;;;12.65;6.65;;;;;9.20;101839.00;;;;5051262;28;20203;-78
2022/03/04 02:01:05;;;;;;;12.15;7.35;;;;;9.20;101841.00;;;;5050387;28;20192;-79
2022/03/04 02:03:32;;;;;;;10.30;6.43;;;;;9.10;101842.00;;;;5051732;28;20207;-79
2022/03/04 02:05:59;;;;;;;10.00;5.88;;;;;9.10;101840.00;;;;5053980;28;20203;-79
2022/03/04 02:08:28;;;;;;;11.20;6.95;;;;;9.00;101838.00;;;;5067998;28;20202;-80
2022/03/04 02:10:55;;;;;;;11.35;7.00;;;;;9.00;101847.00;;;;5070408;28;20237;-79
2022/03/04 02:13:22;;;;;;;11.38;6.03;;;;;9.00;101844.00;;;;5056308;28;20515;-79
2022/03/04 02:15:50;;;;;;;11.65;6.72;;;;;8.90;101840.00;;;;5051028;28;20211;-79
2022/03/04 02:18:18;;;;;;;11.02;6.85;;;;;8.90;101833.00;;;;5050713;28;20322;-79
2022/03/04 02:20:47;;;;;;;9.98;6.35;;;;;8.90;101830.00;;;;5050606;28;20192;-79
2022/03/04 02:23:16;;;;;;;12.30;7.03;;;;;8.80;101833.00;;;;5050675;28;20208;-79
2022/03/04 02:25:47;;;;;;;12.85;7.22;;;;;8.80;101840.00;;;;5050659;28;20204;-79
2022/03/04 02:28:14;;;;;;;11.13;6.47;;;;;8.80;101851.00;;;;5049911;28;20204;-79
2022/03/04 02:30:41;;;;;;;11.52;6.88;;;;;8.70;101839.00;;;;5050683;28;20223;-79
2022/03/04 02:33:09;;;;;;;11.00;6.53;;;;;8.70;101833.00;;;;5050333;28;20254;-79
2022/03/04 02:35:37;;;;;;;12.93;7.28;;;;;8.70;101823.00;;;;5050169;28;20203;-79
2022/03/04 02:38:05;;;;;;;10.52;6.32;;;;;8.60;101830.00;;;;5050488;28;20207;-79
2022/03/04 02:40:33;;;;;;;10.57;6.32;;;;;8.50;101827.00;;;;5050791;28;20646;-78
2022/03/04 02:43:01;;;;;;;12.13;7.35;;;;;8.50;101829.00;;;;5049507;28;20564;-79
2022/03/04 02:45:28;;;;;;;11.95;7.28;;;;;8.50;101825.00;;;;5050643;28;20253;-79
2022/03/04 02:47:55;;;;;;;12.75;7.50;;;;;8.40;101838.00;;;;5049298;28;20216;-79
2022/03/04 02:50:22;;;;;;;10.73;6.93;;;;;8.40;101829.00;;;;5050380;28;20223;-79
2022/03/04 02:52:50;;;;;;;11.70;7.03;;;;;8.30;101836.00;;;;5049808;28;20219;-79
2022/03/04 02:55:17;;;;;;;11.48;6.57;;;;;8.30;101825.00;;;;5050066;28;20265;-79
2022/03/04 02:57:47;;;;;;;12.63;7.30;;;;;8.20;101831.00;;;;5050186;28;20270;-79
2022/03/04 03:00:16;;;;;;;12.50;7.40;;;;;8.20;101826.00;;;;5049898;28;20665;-79
2022/03/04 03:02:44;;;;;;;12.88;7.40;;;;;8.10;101831.00;;;;5049045;28;20207;-79
2022/03/04 03:05:12;;;;;;;11.88;6.93;;;;;8.10;101826.00;;;;5050018;28;20215;-79
2022/03/04 03:07:40;;;;;;;13.77;7.82;;;;;8.00;101829.00;;;;5034418;28;20201;-79
2022/03/04 03:10:09;;;;;;;11.85;7.10;;;;;8.00;101829.00;;;;5029226;28;20231;-79
2022/03/04 03:12:36;;;;;;;14.45;7.80;;;;;8.00;101832.00;;;;5030369;28;20215;-79
2022/03/04 03:15:06;;;;;;;13.45;7.28;;;;;7.90;101837.00;;;;5033533;28;20184;-79
2022/03/04 03:17:33;;;;;;;13.50;7.25;;;;;7.90;101838.00;;;;5060388;28;20184;-79
2022/03/04 03:20:00;;;;;;;11.13;6.70;;;;;7.80;101832.00;;;;5048728;28;20231;-79
2022/03/04 03:22:28;;;;;;;11.18;6.72;;;;;7.80;101830.00;;;;5049843;28;20290;-79
2022/03/04 03:24:55;;;;;;;11.98;7.35;;;;;7.70;101834.00;;;;5049501;28;20206;-79
2022/03/04 03:27:23;;;;;;;13.13;8.40;;;;;7.70;101826.00;;;;5049820;28;20215;-79
2022/03/04 03:29:50;;;;;;;11.43;7.68;;;;;7.70;101831.00;;;;5049063;28;20210;-78
2022/03/04 03:32:19;;;;;;;15.15;8.40;;;;;7.60;101833.00;;;;5049257;28;20203;-78
2022/03/04 03:34:46;;;;;;;11.27;7.55;;;;;7.60;101827.00;;;;5048823;28;20208;-78
2022/03/04 03:37:13;;;;;;;13.32;7.63;;;;;7.60;101833.00;;;;5048767;28;20203;-78
2022/03/04 03:39:40;;;;;;;15.68;8.20;;;;;7.60;101839.00;;;;5049301;28;20196;-78
2022/03/04 03:42:08;;;;;;;15.18;8.38;;;;;7.50;101836.00;;;;5049001;28;20203;-79
2022/03/04 03:44:35;;;;;;;11.63;7.13;;;;;7.50;101838.00;;;;5049395;28;20203;-78
2022/03/04 03:47:03;;;;;;;12.52;7.47;;;;;7.50;101845.00;;;;5048761;28;20207;-79
2022/03/04 03:49:31;;;;;;;12.27;7.35;;;;;7.50;101845.00;;;;5048726;28;20253;-79
2022/03/04 03:51:58;;;;;;;13.38;7.97;;;;;7.50;101840.00;;;;5048731;28;20240;-78
2022/03/04 03:54:26;;;;;;;13.00;7.60;;;;;7.50;101838.00;;;;5048964;28;20210;-78
2022/03/04 03:56:53;;;;;;;14.20;8.07;;;;;7.50;101839.00;;;;5048592;28;20203;-79
2022/03/04 03:59:20;;;;;;;11.02;6.80;;;;;7.50;101846.00;;;;5047939;28;20187;-79
2022/03/04 04:01:47;;;;;;;12.38;7.47;;;;;7.50;101839.00;;;;5048932;28;20756;-79
2022/03/04 04:04:15;;;;;;;19.17;8.20;;;;;7.50;101851.00;;;;5048547;28;20211;-79
2022/03/04 04:06:44;;;;;;;15.10;7.97;;;;;7.50;101848.00;;;;5047630;28;20211;-78
2022/03/04 04:09:12;;;;;;;11.32;7.07;;;;;7.50;101847.00;;;;5049043;28;20203;-79
2022/03/04 04:11:40;;;;;;;14.52;8.07;;;;;7.50;101849.00;;;;5048317;28;20273;-79
2022/03/04 04:14:10;;;;;;;13.25;7.90;;;;;7.50;101849.00;;;;5049099;28;20204;-79
2022/03/04 04:16:38;;;;;;;12.20;7.10;;;;;7.50;101856.00;;;;5048654;28;20195;-78
2022/03/04 04:19:05;;;;;;;13.20;7.78;;;;;7.50;101851.00;;;;5047421;28;20582;-79
2022/03/04 04:21:34;;;;;;;12.40;7.10;;;;;7.50;101853.00;;;;5049070;28;20211;-78
2022/03/04 04:24:03;;;;;;;11.45;7.47;;;;;7.50;101862.00;;;;5048431;28;20196;-79
2022/03/04 04:26:31;;;;;;;13.90;7.93;;;;;7.50;101855.00;;;;5050868;28;20195;-79
2022/03/04 04:28:58;;;;;;;13.45;7.40;;;;;7.50;101869.00;;;;5057690;28;20212;-79
2022/03/04 04:31:26;;;;;;;11.55;6.88;;;;;7.50;101855.00;;;;5047661;28;20231;-79
2022/03/04 04:33:53;;;;;;;12.38;6.85;;;;;7.50;101850.00;;;;5048020;28;20207;-78
2022/03/04 04:36:20;;;;;;;10.52;6.75;;;;;7.50;101855.00;;;;5028295;28;20565;-78
2022/03/04 04:38:48;;;;;;;12.68;7.53;;;;;7.50;101854.00;;;;5028488;28;20196;-79
2022/03/04 04:41:16;;;;;;;11.05;7.10;;;;;7.50;101847.00;;;;5028039;28;20684;-79
2022/03/04 04:43:43;;;;;;;13.57;8.07;;;;;7.50;101854.00;;;;5027748;28;20240;-79
2022/03/04 04:46:11;;;;;;;14.02;7.63;;;;;7.50;101854.00;;;;5040321;28;20234;-79
2022/03/04 04:48:38;;;;;;;11.70;7.18;;;;;7.50;101861.00;;;;5048234;28;20249;-79
2022/03/04 04:51:05;;;;;;;11.68;6.88;;;;;7.50;101862.00;;;;5047958;28;21306;-79
2022/03/04 04:53:34;;;;;;;12.63;7.28;;;;;7.50;101847.00;;;;5048367;28;20224;-79
2022/03/04 04:56:01;;;;;;;13.57;7.40;;;;;7.50;101852.00;;;;5047295;28;20222;-78
2022/03/04 04:58:29;;;;;;;12.77;7.38;;;;;7.50;101848.00;;;;5048057;28;20196;-78
2022/03/04 05:00:57;;;;;;;11.27;6.85;;;;;7.50;101850.00;;;;5048010;28;20207;-78
2022/03/04 05:03:25;;;;;;;12.30;7.32;;;;;7.40;101848.00;;;;5047351;28;20215;-78
2022/03/04 05:05:53;;;;;;;14.50;8.40;;;;;7.40;101850.00;;;;5048070;28;20207;-79
2022/03/04 05:08:21;;;;;;;11.93;7.68;;;;;7.40;101843.00;;;;5028947;28;20205;-78
2022/03/04 05:10:48;;;;;;;12.25;7.70;;;;;7.40;101841.00;;;;5028948;28;20698;-78
2022/03/04 05:13:16;;;;;;;12.82;7.65;;;;;7.40;101847.00;;;;5031606;28;20211;-79
2022/03/04 05:15:45;;;;;;;12.68;6.97;;;;;7.40;101846.00;;;;5031704;28;20685;-79
2022/03/04 05:18:12;;;;;;;15.15;7.32;;;;;7.40;101846.00;;;;5031492;28;20251;-79
2022/03/04 05:20:39;;;;;;;12.02;7.35;;;;;7.40;101845.00;;;;5047482;28;20207;-79
2022/03/04 05:23:07;;;;;;;12.57;7.00;;;;;7.40;101849.00;;;;5051333;28;20223;-79
2022/03/04 05:25:34;;;;;;;10.25;6.63;;;;;7.40;101853.00;;;;5052135;28;20206;-79
2022/03/04 05:28:01;;;;;;;11.98;7.32;;;;;7.40;101850.00;;;;5051558;28;20211;-79
2022/03/04 05:30:29;;;;;;;11.93;7.38;;;;;7.40;101850.00;;;;5051264;28;20199;-80
2022/03/04 05:32:57;;;;;;;13.00;7.15;;;;;7.30;101849.00;;;;5057478;28;20203;-79
2022/03/04 05:35:25;;;;;;;13.35;7.30;;;;;7.30;101858.00;;;;5057727;28;20191;-80
2022/03/04 05:37:52;;;;;;;12.35;6.80;;;;;7.30;101856.00;;;;5051146;28;20250;-79
2022/03/04 05:40:19;;;;;;;12.88;7.10;;;;;7.30;101864.00;;;;5051463;28;20195;-79
2022/03/04 05:42:46;;;;;;;12.73;7.93;;;;;7.30;101870.00;;;;5051183;28;20751;-79
2022/03/04 05:45:14;;;;;;;11.73;7.30;;;;;7.30;101870.00;;;;5050765;28;20200;-78
2022/03/04 05:47:41;;;;;;;12.57;7.00;;;;;7.30;101870.00;;;;5051589;28;20203;-79
2022/03/04 05:50:11;;;;;;;14.23;8.07;;;;;7.20;101875.00;;;;5051229;28;20199;-79
2022/03/04 05:52:38;;;;;;;13.75;8.57;;;;;7.30;101878.00;;;;5050667;28;20705;-79
2022/03/04 05:55:06;;;;;;;11.95;7.28;;;;;7.20;101881.00;;;;5050751;28;20242;-79
2022/03/04 05:57:34;;;;;;;12.68;7.45;;;;;7.20;101878.00;;;;5051444;28;20277;-79
2022/03/04 06:00:01;;;;;;;13.32;7.80;;;;;7.20;101882.00;;;;5050566;28;20554;-78
2022/03/04 06:02:28;;;;;;;15.00;7.20;;;;;7.20;101876.00;;;;5051404;28;20223;-78
2022/03/04 06:04:56;;;;;;;11.30;6.78;;;;;7.20;101877.00;;;;5050806;28;20248;-78
2022/03/04 06:07:24;;;;;;;11.52;7.70;;;;;7.20;101879.00;;;;5050875;28;20204;-79
2022/03/04 06:09:51;;;;;;;14.13;7.95;;;;;7.20;101876.00;;;;5050773;28;20204;-79
2022/03/04 06:12:19;;;;;;;12.88;7.43;;;;;7.20;101882.00;;;;5050898;28;20646;-79
2022/03/04 06:14:46;;;;;;;12.68;7.10;;;;;7.10;101884.00;;;;5049943;28;20673;-79
2022/03/04 06:17:13;;;;;;;11.32;7.07;;;;;7.10;101883.00;;;;5051039;28;20199;-78
2022/03/04 06:19:41;;;;;;;13.65;7.63;;;;;7.10;101889.00;;;;5050895;28;20227;-78
2022/03/04 06:22:09;;;;;;;12.20;6.70;;;;;7.10;101888.00;;;;5049504;28;20192;-79
2022/03/04 06:24:38;;;;;;;13.70;8.02;;;;;7.10;101889.00;;;;5050429;28;20227;-78
2022/03/04 06:27:05;;;;;;;10.23;6.43;;;;;7.10;101895.00;;;;5049859;28;20764;-79
2022/03/04 06:29:33;;;;;;;11.07;7.15;;;;;7.10;101902.00;;;;5050342;28;20215;-78
2022/03/04 06:32:00;;;;;;;11.05;7.22;;;;;7.10;101901.00;;;;5048809;28;20234;-79
2022/03/04 06:34:28;;;;;;;11.95;7.30;;;;;7.10;101901.00;;;;5049790;28;20539;-78
2022/03/04 06:36:55;;;;;;;11.68;7.80;;;;;7.10;101904.00;;;;5049359;28;20207;-78
2022/03/04 06:39:22;;;;;;;11.07;6.72;;;;;7.00;101901.00;;;;5050038;28;20195;-79
2022/03/04 06:41:51;;;;;;;14.57;7.72;;;;;7.00;101902.00;;;;5049553;28;20538;-78
2022/03/04 06:44:18;;;;;;;11.82;7.30;;;;;7.00;101908.00;;;;5053459;28;20632;-79
2022/03/04 06:46:45;;;;;;;11.35;7.18;;;;;7.00;101911.00;;;;5056352;28;20203;-78
2022/03/04 06:49:12;;;;;;;10.50;6.65;;;;;7.00;101918.00;;;;5049516;28;20200;-79
2022/03/04 06:51:40;;;;;;;11.93;6.97;;;;;7.00;101918.00;;;;5049025;28;20599;-78
2022/03/04 06:54:08;;;;;;;13.05;7.05;;;;;7.00;101919.00;;;;5049356;28;20211;-78
2022/03/04 06:56:35;;;;;;;12.77;7.55;;;;;7.00;101919.00;;;;5050054;28;20203;-78
2022/03/04 06:59:03;;;;;;;13.10;7.28;;;;;7.00;101925.00;;;;5048772;28;20214;-78
2022/03/04 07:01:31;;;;;;;10.30;6.93;;;;;7.10;101921.00;;;;5048938;28;20208;-79
2022/03/04 07:03:58;;;;;;;15.65;7.47;;;;;7.10;101933.00;;;;5049133;28;20203;-78
2022/03/04 07:06:25;;;;;;;13.85;7.47;;;;;7.10;101935.00;;;;5048469;28;20680;-78
2022/03/04 07:08:52;;;;;;;13.82;8.38;;;;;7.20;101933.00;;;;5030347;28;20216;-79
2022/03/04 07:11:19;;;;;;;14.10;7.88;;;;;7.20;101944.00;;;;5029428;28;20315;-79
2022/03/04 07:13:46;;;;;;;13.77;7.50;;;;;7.30;101944.00;;;;5029571;28;20208;-79
2022/03/04 07:16:15;;;;;;;14.60;8.48;;;;;7.30;101948.00;;;;5029666;28;20208;-79
2022/03/04 07:18:43;;;;;;;13.80;7.75;;;;;7.30;101947.00;;;;5038189;28;20235;-79
2022/03/04 07:21:11;;;;;;;12.75;7.07;;;;;7.40;101949.00;;;;5049315;28;20196;-78
2022/03/04 07:23:38;;;;;;;11.85;7.47;;;;;7.40;101945.00;;;;5049057;28;20195;-78
2022/03/04 07:26:08;;;;;;;11.63;7.07;;;;;7.50;101949.00;;;;5048870;28;20200;-79
2022/03/04 07:28:35;;;;;;;15.13;8.60;;;;;7.50;101948.00;;;;5049675;28;20220;-79
2022/03/04 07:31:02;;;;;;;12.63;7.32;;;;;7.60;101953.00;;;;5049280;28;20207;-80
2022/03/04 07:33:33;;;;;;;14.45;7.35;;;;;7.70;101953.00;;;;5044257;28;20254;-79
2022/03/04 07:36:01;;;;;;;14.13;8.68;;;;;7.70;101954.00;;;;5042228;28;20559;-80
2022/03/04 07:38:28;;;;;;;13.07;7.75;;;;;7.80;101957.00;;;;5029595;28;20204;-79
2022/03/04 07:40:58;;;;;;;12.27;7.70;;;;;7.90;101954.00;;;;5029227;28;20283;-80
2022/03/04 07:43:25;;;;;;;13.73;7.63;;;;;7.90;101954.00;;;;5029118;28;20667;-79
2022/03/04 07:45:53;;;;;;;12.52;7.63;;;;;8.00;101951.00;;;;5034045;28;20242;-79
2022/03/04 07:48:20;;;;;;;11.23;7.25;;;;;8.00;101947.00;;;;5048948;28;20440;-80
2022/03/04 07:50:48;;;;;;;15.00;8.45;;;;;8.10;101947.00;;;;5049538;28;20547;-80
2022/03/04 07:53:16;;;;;;;12.27;7.20;;;;;8.10;101948.00;;;;5050492;28;20235;-80
2022/03/04 07:55:44;;;;;;;13.48;8.02;;;;;8.20;101951.00;;;;5069310;28;20286;-80
2022/03/04 07:58:11;;;;;;;15.43;8.32;;;;;8.30;101953.00;;;;5068567;28;20215;-79
2022/03/04 08:00:38;;;;;;;11.98;7.38;;;;;8.30;101946.00;;;;5068984;28;20225;-79
2022/03/04 08:03:05;;;;;;;13.18;7.20;;;;;8.40;101948.00;;;;5068082;28;20191;-79
2022/03/04 08:05:33;;;;;;;11.02;6.72;;;;;8.40;101952.00;;;;5068704;28;20218;-80
2022/03/04 08:08:02;;;;;;;12.30;7.10;;;;;8.50;101951.00;;;;5049478;28;20204;-80
2022/03/04 08:10:30;;;;;;;11.95;6.97;;;;;8.60;101957.00;;;;5049095;28;20208;-79
2022/03/04 08:12:57;;;;;;;14.00;7.70;;;;;8.70;101960.00;;;;5047868;28;20235;-80
2022/03/04 08:15:24;;;;;;;12.10;7.63;;;;;8.80;101959.00;;;;5048338;28;20207;-80
2022/03/04 08:17:52;;;;;;;14.95;8.00;;;;;8.90;101961.00;;;;5048253;28;20203;-79
2022/03/04 08:20:21;;;;;;;12.48;8.07;;;;;8.90;101961.00;;;;5048532;28;20203;-80
2022/03/04 08:22:48;;;;;;;11.82;7.63;;;;;9.00;101965.00;;;;5048384;28;20241;-79
2022/03/04 08:25:17;;;;;;;12.05;7.70;;;;;9.10;101966.00;;;;5048458;28;20202;-81
2022/03/04 08:27:44;;;;;;;11.23;7.57;;;;;9.20;101978.00;;;;5047669;28;20203;-80
2022/03/04 08:30:13;;;;;;;12.55;7.65;;;;;9.20;101972.00;;;;5048418;28;20203;-81
2022/03/04 08:32:41;;;;;;;13.07;8.65;;;;;9.30;101979.00;;;;5048208;28;20223;-81
2022/03/04 08:35:09;;;;;;;12.85;7.63;;;;;9.40;101978.00;;;;5048537;28;20214;-81
2022/03/04 08:37:36;;;;;;;11.93;7.75;;;;;9.50;101985.00;;;;5048284;28;20207;-80
2022/03/04 08:40:05;;;;;;;13.05;7.95;;;;;9.50;101989.00;;;;5047670;28;20233;-80
2022/03/04 08:42:34;;;;;;;13.20;7.90;;;;;9.60;101978.00;;;;5048728;28;20196;-80
2022/03/04 08:45:01;;;;;;;12.15;7.43;;;;;9.70;101989.00;;;;5047096;28;20609;-79
2022/03/04 08:47:28;;;;;;;14.27;7.72;;;;;9.80;101993.00;;;;5047885;28;20198;-80
2022/03/04 08:49:56;;;;;;;13.02;8.10;;;;;9.90;101999.00;;;;5048040;28;20207;-80
2022/03/04 08:52:24;;;;;;;13.57;8.38;;;;;10.00;101994.00;;;;5047967;28;20243;-80
2022/03/04 08:54:51;;;;;;;9.82;6.93;;;;;10.00;102003.00;;;;5048332;28;20211;-80
2022/03/04 08:57:19;;;;;;;13.77;8.50;;;;;10.10;101992.00;;;;5048161;28;20200;-80
2022/03/04 08:59:47;;;;;;;11.07;7.15;;;;;10.20;101996.00;;;;5053557;28;20294;-80
2022/03/04 09:02:15;;;;;;;11.95;7.68;;;;;10.30;101999.00;;;;5058497;28;20199;-80
2022/03/04 09:04:42;;;;;;;12.90;7.82;;;;;10.40;101994.00;;;;5068403;28;20190;-80
2022/03/04 09:07:09;;;;;;;12.48;7.88;;;;;10.50;101999.00;;;;5055497;28;20207;-80
2022/03/04 09:09:38;;;;;;;13.73;8.02;;;;;10.60;101987.00;;;;5027521;28;20214;-80
2022/03/04 09:12:07;;;;;;;12.20;6.88;;;;;10.70;101985.00;;;;5028432;28;20223;-80
2022/03/04 09:14:34;;;;;;;11.48;7.32;;;;;10.80;101983.00;;;;5028325;28;20258;-80
2022/03/04 09:17:03;;;;;;;12.35;7.45;;;;;10.90;101988.00;;;;5030174;28;20300;-80
2022/03/04 09:19:31;;;;;;;11.95;7.30;;;;;11.00;101974.00;;;;5047942;28;20281;-80
2022/03/04 09:21:59;;;;;;;9.68;6.97;;;;;11.10;101975.00;;;;5047246;28;20199;-80
2022/03/04 09:24:28;;;;;;;10.77;6.78;;;;;11.20;101976.00;;;;5048160;28;20195;-80
2022/03/04 09:26:55;;;;;;;9.10;6.05;;;;;11.30;101974.00;;;;5047573;28;20281;-79
2022/03/04 09:29:22;;;;;;;11.95;8.05;;;;;11.50;101973.00;;;;5047972;28;20196;-80
2022/03/04 09:31:49;;;;;;;11.38;7.20;;;;;11.60;101964.00;;;;5047669;28;20211;-80
2022/03/04 09:34:19;;;;;;;11.90;7.45;;;;;11.70;101962.00;;;;5047656;28;20422;-81
2022/03/04 09:36:46;;;;;;;13.38;6.97;;;;;11.80;101973.00;;;;5047938;28;20290;-80
2022/03/04 09:39:14;;;;;;;7.97;6.30;;;;;11.90;101962.00;;;;5047866;28;20200;-81
2022/03/04 09:41:44;;;;;;;11.50;7.43;;;;;12.00;101957.00;;;;5047559;28;20603;-80
2022/03/04 09:44:12;;;;;;;11.23;6.20;;;;;12.20;101959.00;;;;5047910;28;20200;-81
2022/03/04 09:46:42;;;;;;;10.00;6.15;;;;;12.30;101965.00;;;;5047545;28;20207;-80
2022/03/04 09:49:11;;;;;;;9.13;5.97;;;;;12.40;101958.00;;;;5046827;28;20195;-80
2022/03/04 09:51:39;;;;;;;12.45;7.40;;;;;12.50;101965.00;;;;5047183;28;20631;-80
2022/03/04 09:54:07;;;;;;;8.50;5.90;;;;;12.60;101966.00;;;;5047604;28;20223;-80
2022/03/04 09:56:34;;;;;;;11.68;7.07;;;;;12.70;101967.00;;;;5046762;28;20212;-80
2022/03/04 09:59:01;;;;;;;9.63;6.80;;;;;12.80;101968.00;;;;5049470;28;20207;-80
2022/03/04 10:01:28;;;;;;;10.90;7.03;;;;;12.90;101976.00;;;;5050534;28;20203;-80
2022/03/04 10:03:56;;;;;;;9.30;6.40;;;;;13.10;101980.00;;;;5050526;28;20208;-80
2022/03/04 10:06:24;;;;;;;10.75;6.43;;;;;13.10;101978.00;;;;5050396;28;20207;-80
2022/03/04 10:08:53;;;;;;;11.07;6.72;;;;;13.20;101977.00;;;;5056129;28;20194;-80
2022/03/04 10:11:30;;;;;;;10.80;7.30;;;;;13.30;101980.00;;;;5069787;28;20599;-80
2022/03/04 10:13:59;;;;;;;10.38;6.82;;;;;13.50;101985.00;;;;5069684;28;20226;-80
2022/03/04 10:16:29;;;;;;;10.05;6.97;;;;;13.50;101977.00;;;;5070295;28;20294;-80
2022/03/04 10:19:07;;;;;;;10.10;6.55;;;;;13.60;101976.00;;;;5070081;28;20231;-80
2022/03/04 10:21:49;;;;;;;10.60;7.30;;;;;13.70;101983.00;;;;5070073;28;20203;-80
2022/03/04 10:24:19;;;;;;;11.98;7.55;;;;;13.80;101993.00;;;;5069709;28;20676;-80
2022/03/04 10:26:47;;;;;;;10.63;6.80;;;;;14.00;101988.00;;;;5052953;28;20212;-81
2022/03/04 10:29:24;;;;;;;8.40;6.13;;;;;14.00;101976.00;;;;5049446;28;20207;-80
2022/03/04 10:32:11;;;;;;;11.80;7.70;;;;;14.10;101975.00;;;;5050049;28;20203;-80
2022/03/04 10:34:46;;;;;;;10.40;6.82;;;;;14.20;101981.00;;;;5049613;28;20264;-80
2022/03/04 10:37:15;;;;;;;10.05;7.03;;;;;14.40;101974.00;;;;5049376;28;20631;-80
2022/03/04 10:40:01;;;;;;;10.65;6.55;;;;;14.40;101977.00;;;;5049816;28;20235;-80
2022/03/04 10:42:46;;;;;;;9.55;6.93;;;;;14.50;101973.00;;;;5049039;28;20207;-80
2022/03/04 10:45:15;;;;;;;11.05;7.22;;;;;14.60;101971.00;;;;5049400;28;20199;-80
2022/03/04 10:47:45;;;;;;;11.07;7.25;;;;;14.70;101973.00;;;;5049247;28;20202;-79
2022/03/04 10:50:13;;;;;;;10.48;7.20;;;;;14.70;101968.00;;;;5049524;28;20194;-79
2022/03/04 10:52:52;;;;;;;12.65;8.60;;;;;14.80;101964.00;;;;5049362;28;20231;-79
2022/03/04 10:55:31;;;;;;;13.32;8.60;;;;;14.90;101974.00;;;;5049406;28;20204;-79
2022/03/04 10:58:00;;;;;;;11.27;8.10;;;;;15.00;101967.00;;;;5048996;28;20207;-79
2022/03/04 11:00:29;;;;;;;11.05;7.70;;;;;15.10;101966.00;;;;5049136;28;20203;-79
2022/03/04 11:02:57;;;;;;;12.18;7.53;;;;;15.20;101970.00;;;;5049111;28;20211;-79
2022/03/04 11:05:24;;;;;;;13.05;7.88;;;;;15.30;101969.00;;;;5049231;28;20211;-80
2022/03/04 11:07:52;;;;;;;10.77;7.18;;;;;15.40;101966.00;;;;5038467;28;20682;-79
2022/03/04 11:10:21;;;;;;;11.90;7.63;;;;;15.40;101975.00;;;;5028705;28;20207;-80
2022/03/04 11:12:54;;;;;;;11.50;7.20;;;;;15.50;101966.00;;;;5029344;28;20231;-79
2022/03/04 11:15:24;;;;;;;11.50;7.43;;;;;15.60;101962.00;;;;5035598;28;20192;-80
2022/03/04 11:17:52;;;;;;;14.75;8.75;;;;;15.70;101962.00;;;;5059780;28;20610;-79
2022/03/04 11:20:20;;;;;;;10.90;7.63;;;;;15.70;101965.00;;;;5068630;28;20207;-80
2022/03/04 11:22:51;;;;;;;11.73;7.53;;;;;15.80;101967.00;;;;5069347;28;20206;-79
2022/03/04 11:25:22;;;;;;;12.32;8.75;;;;;15.90;101961.00;;;;5068249;28;20199;-79
2022/03/04 11:27:55;;;;;;;9.63;7.28;;;;;16.00;101959.00;;;;5068766;28;20258;-79
2022/03/04 11:30:30;;;;;;;12.52;8.48;;;;;16.00;101962.00;;;;5068216;28;20585;-79
2022/03/04 11:33:16;;;;;;;9.63;6.72;;;;;16.10;101965.00;;;;5065775;28;20746;-79
2022/03/04 11:35:58;;;;;;;9.23;7.03;;;;;16.10;101961.00;;;;5047294;28;20211;-79
2022/03/04 11:39:05;;;;;;;11.52;8.20;;;;;16.10;101961.00;;;;5048592;28;20191;-79
2022/03/04 11:41:37;;;;;;;9.80;7.25;;;;;16.30;101963.00;;;;5047966;28;20215;-79
2022/03/04 11:44:14;;;;;;;11.23;7.30;;;;;16.30;101969.00;;;;5048403;28;20239;-79
2022/03/04 11:46:49;;;;;;;11.68;7.97;;;;;16.40;101962.00;;;;5048006;28;20199;-79
2022/03/04 11:49:46;;;;;;;11.13;7.22;;;;;16.40;101965.00;;;;5048413;28;20229;-79
2022/03/04 11:52:24;;;;;;;10.18;6.93;;;;;16.50;101966.00;;;;5023348;28;20243;-79
2022/03/04 11:55:20;;;;;;;12.23;8.13;;;;;16.50;101963.00;;;;5028470;28;20224;-79
2022/03/04 11:57:48;;;;;;;11.30;7.60;;;;;16.70;101968.00;;;;5028539;28;20504;-79
2022/03/04 12:00:31;;;;;;;16.13;8.18;;;;;16.60;101962.00;;;;5028156;28;20196;-79
2022/03/04 12:03:00;;;;;;;12.10;7.68;;;;;16.80;101957.00;;;;5028016;28;20206;-80
2022/03/04 12:05:32;;;;;;;10.65;7.55;;;;;16.80;101961.00;;;;5028907;28;20208;-80
2022/03/04 12:08:11;;;;;;;12.25;7.93;;;;;16.90;101957.00;;;;5028289;28;20498;-80
2022/03/04 12:10:44;;;;;;;12.20;9.18;;;;;17.00;101952.00;;;;5027880;28;20236;-80
2022/03/04 12:13:14;;;;;;;10.75;7.45;;;;;17.10;101960.00;;;;5027982;28;20670;-80